Time;durP1;ratioP1;P1;durP2;ratioP2;P2;SDS_P1;SDS_P2;PMS_P1;PMS_P2;Temp;Humidity;BMP_temperature;BMP_pressure;BME280_temperature;BME280_humidity;BME280_pressure;Samples;Min_cycle;Max_cycle;Signal;HPM_P1;HPM_P2
2022/04/12 00:00:41;;;;;;;15.38;3.85;;;13.60;71.00;;;;;;5062270;28;20028;-60
2022/04/12 00:03:07;;;;;;;15.35;3.97;;;13.60;71.00;;;;;;5064205;28;20577;-61
2022/04/12 00:05:33;;;;;;;15.20;3.85;;;13.60;71.00;;;;;;5065390;28;20036;-61
2022/04/12 00:07:59;;;;;;;15.85;4.05;;;13.60;71.10;;;;;;5063737;28;20029;-61
2022/04/12 00:10:24;;;;;;;8.73;3.17;;;13.60;71.10;;;;;;5061929;28;20032;-60
2022/04/12 00:12:50;;;;;;;10.10;3.75;;;13.60;71.20;;;;;;5062197;28;20885;-60
2022/04/12 00:15:15;;;;;;;9.63;3.13;;;13.60;71.10;;;;;;5063352;28;20064;-60
2022/04/12 00:20:26;;;;;;;12.25;3.63;;;13.50;71.10;;;;;;5062168;28;20128;-60
2022/04/12 00:22:52;;;;;;;11.43;3.13;;;13.50;71.20;;;;;;5061904;28;20433;-60
2022/04/12 00:25:22;;;;;;;9.60;3.40;;;13.50;71.30;;;;;;5064000;28;20033;-61
2022/04/12 00:27:47;;;;;;;12.20;3.28;;;13.40;71.40;;;;;;5065240;28;20111;-61
2022/04/12 00:30:13;;;;;;;9.70;2.95;;;13.50;71.50;;;;;;5061444;28;20040;-61
2022/04/12 00:32:39;;;;;;;9.27;3.08;;;13.40;71.40;;;;;;5061918;28;20399;-60
2022/04/12 00:35:05;;;;;;;8.13;2.88;;;13.40;71.40;;;;;;5061782;28;20400;-60
2022/04/12 00:37:31;;;;;;;8.10;2.75;;;13.40;71.50;;;;;;5063142;28;20063;-60
2022/04/12 00:39:56;;;;;;;5.65;3.13;;;13.40;71.60;;;;;;5062151;28;20032;-60
2022/04/12 00:42:22;;;;;;;10.38;4.05;;;13.30;71.70;;;;;;5061516;28;20040;-60
2022/04/12 00:44:47;;;;;;;14.05;3.90;;;13.30;71.70;;;;;;5063402;28;20016;-60
2022/04/12 00:47:13;;;;;;;11.32;4.50;;;13.30;71.80;;;;;;5063801;28;20555;-61
2022/04/12 00:49:39;;;;;;;8.80;4.10;;;13.30;71.90;;;;;;5063421;28;20028;-61
2022/04/12 00:52:05;;;;;;;12.45;4.40;;;13.20;71.90;;;;;;5062842;28;20068;-61
2022/04/12 00:54:34;;;;;;;10.80;4.00;;;13.20;72.10;;;;;;5061285;28;20110;-60
2022/04/12 00:56:59;;;;;;;5.97;3.58;;;13.20;72.20;;;;;;5063147;28;20024;-61
2022/04/12 00:59:25;;;;;;;8.02;3.55;;;13.20;72.20;;;;;;5062914;28;20123;-61
2022/04/12 01:01:51;;;;;;;8.38;3.75;;;13.20;72.20;;;;;;5062181;28;20048;-61
2022/04/12 01:04:17;;;;;;;7.65;3.25;;;13.20;72.30;;;;;;5062343;28;20056;-60
2022/04/12 01:06:42;;;;;;;5.55;3.60;;;13.10;72.40;;;;;;5062599;28;20377;-61
2022/04/12 01:09:09;;;;;;;6.80;3.38;;;13.10;72.50;;;;;;5060648;28;20086;-61
2022/04/12 01:11:35;;;;;;;7.53;3.20;;;13.10;72.50;;;;;;5063901;28;20425;-61
2022/04/12 01:14:01;;;;;;;7.03;3.55;;;13.10;72.60;;;;;;5062717;28;20044;-61
2022/04/12 01:16:27;;;;;;;6.82;3.00;;;13.10;72.70;;;;;;5061974;28;20044;-61
2022/04/12 01:18:52;;;;;;;5.97;3.28;;;13.00;72.80;;;;;;5058657;28;20061;-60
2022/04/12 01:21:18;;;;;;;6.65;3.83;;;13.00;73.10;;;;;;5062077;28;20526;-60
2022/04/12 01:24:02;;;;;;;9.38;3.40;;;13.00;73.20;;;;;;5058631;28;20123;-61
2022/04/12 01:26:28;;;;;;;5.80;3.17;;;13.00;73.20;;;;;;5059696;28;20094;-61
2022/04/12 01:28:53;;;;;;;8.85;4.97;;;13.00;73.30;;;;;;5061421;28;20048;-61
2022/04/12 01:31:19;;;;;;;9.07;5.97;;;12.90;73.40;;;;;;5061554;28;20060;-61
2022/04/12 01:33:44;;;;;;;6.68;4.22;;;12.90;73.50;;;;;;5060442;28;20480;-61
2022/04/12 01:36:10;;;;;;;5.75;4.20;;;12.80;73.60;;;;;;5060891;28;20040;-60
2022/04/12 01:38:35;;;;;;;6.38;3.88;;;12.80;73.60;;;;;;5059401;28;20013;-60
2022/04/12 01:41:02;;;;;;;6.65;3.80;;;12.80;73.50;;;;;;5058157;28;20120;-61
2022/04/12 01:43:28;;;;;;;8.35;4.95;;;12.80;73.60;;;;;;5061892;28;20295;-60
2022/04/12 01:45:53;;;;;;;6.00;4.15;;;12.80;73.70;;;;;;5060246;28;20170;-60
2022/04/12 01:48:19;;;;;;;6.30;4.57;;;12.80;73.70;;;;;;5058415;28;20025;-60
2022/04/12 01:50:44;;;;;;;7.40;3.85;;;12.70;73.70;;;;;;5059021;28;20024;-60
2022/04/12 01:53:10;;;;;;;9.95;4.40;;;12.70;73.70;;;;;;5058606;28;20047;-60
2022/04/12 01:55:35;;;;;;;8.25;4.90;;;12.70;73.80;;;;;;5057707;28;20071;-60
2022/04/12 01:58:01;;;;;;;8.90;5.80;;;12.70;73.90;;;;;;5061168;28;20056;-60
2022/04/12 02:00:26;;;;;;;7.55;5.43;;;12.70;74.00;;;;;;5061014;28;20110;-60
2022/04/12 02:02:52;;;;;;;7.90;5.30;;;12.70;74.00;;;;;;5062566;28;20054;-61
2022/04/12 02:05:17;;;;;;;7.53;5.75;;;12.60;74.00;;;;;;5059877;28;20074;-60
2022/04/12 02:07:43;;;;;;;11.02;5.70;;;12.60;74.00;;;;;;5061218;28;20071;-61
2022/04/12 02:10:09;;;;;;;7.15;4.80;;;12.60;74.10;;;;;;5041708;28;20125;-60
2022/04/12 02:12:35;;;;;;;5.95;4.88;;;12.60;74.20;;;;;;5058187;28;20436;-60
2022/04/12 02:15:00;;;;;;;7.38;5.15;;;12.60;74.30;;;;;;5058742;28;20132;-61
2022/04/12 02:17:26;;;;;;;7.43;5.72;;;12.60;74.50;;;;;;5058905;28;20056;-61
2022/04/12 02:19:51;;;;;;;6.07;5.38;;;12.60;74.50;;;;;;5059344;28;20021;-60
2022/04/12 02:22:17;;;;;;;6.85;4.25;;;12.50;74.70;;;;;;5061424;28;20025;-61
2022/04/12 02:24:42;;;;;;;6.68;5.13;;;12.50;74.70;;;;;;5045303;28;20070;-60
2022/04/12 02:27:08;;;;;;;7.97;4.57;;;12.50;74.70;;;;;;5059375;28;20464;-61
2022/04/12 02:29:33;;;;;;;5.35;4.00;;;12.50;74.70;;;;;;5059452;28;20028;-60
2022/04/12 02:31:59;;;;;;;7.80;4.40;;;12.50;74.90;;;;;;5042955;28;20131;-61
2022/04/12 02:34:24;;;;;;;9.18;4.22;;;12.50;75.00;;;;;;5043755;28;20032;-61
2022/04/12 02:36:50;;;;;;;3.88;3.42;;;12.40;75.10;;;;;;5054872;28;20059;-60
2022/04/12 02:39:15;;;;;;;5.00;3.80;;;12.40;75.20;;;;;;5058746;28;20416;-60
2022/04/12 02:41:41;;;;;;;6.57;4.13;;;12.40;75.40;;;;;;5061205;28;20028;-61
2022/04/12 02:44:06;;;;;;;5.57;3.97;;;12.40;75.30;;;;;;5062030;28;20028;-60
2022/04/12 02:46:32;;;;;;;10.40;4.60;;;12.30;75.10;;;;;;5062576;28;20249;-60
2022/04/12 02:48:57;;;;;;;7.57;3.97;;;12.30;75.20;;;;;;5027851;28;20029;-60
2022/04/12 02:51:23;;;;;;;6.70;4.13;;;12.30;75.20;;;;;;5059572;28;20085;-60
2022/04/12 02:53:48;;;;;;;10.20;3.80;;;12.20;75.20;;;;;;5056403;28;20036;-60
2022/04/12 02:56:14;;;;;;;5.57;4.35;;;12.20;75.30;;;;;;5058374;28;20587;-60
2022/04/12 02:58:40;;;;;;;8.85;4.70;;;12.20;75.40;;;;;;5059520;28;20033;-61
2022/04/12 03:01:05;;;;;;;5.78;4.00;;;12.10;75.30;;;;;;5058442;28;20029;-61
2022/04/12 03:03:31;;;;;;;6.32;4.38;;;12.10;75.40;;;;;;5060937;28;20480;-60
2022/04/12 03:05:56;;;;;;;10.82;4.38;;;12.10;75.30;;;;;;5061077;28;20499;-61
2022/04/12 03:08:22;;;;;;;7.97;4.10;;;12.10;75.30;;;;;;5059313;28;20037;-61
2022/04/12 03:10:48;;;;;;;4.95;4.03;;;12.10;75.30;;;;;;5061650;28;20012;-60
2022/04/12 03:13:13;;;;;;;5.65;4.32;;;12.00;75.50;;;;;;5059745;28;20078;-60
2022/04/12 03:15:39;;;;;;;11.85;4.40;;;12.00;75.10;;;;;;5059825;28;20449;-61
2022/04/12 03:18:04;;;;;;;5.50;3.85;;;12.00;75.10;;;;;;5057542;28;20068;-60
2022/04/12 03:20:31;;;;;;;4.28;3.50;;;12.00;75.10;;;;;;5059711;28;20075;-60
2022/04/12 03:22:56;;;;;;;5.18;3.65;;;12.00;75.00;;;;;;5041689;28;20024;-60
2022/04/12 03:25:22;;;;;;;4.88;3.70;;;12.00;75.10;;;;;;5060221;28;20033;-60
2022/04/12 03:27:48;;;;;;;5.60;3.83;;;12.00;75.10;;;;;;5058205;28;20032;-60
2022/04/12 03:30:13;;;;;;;11.13;3.88;;;11.90;75.10;;;;;;5062347;28;20032;-59
2022/04/12 03:32:39;;;;;;;4.90;3.63;;;11.90;75.10;;;;;;5062299;28;20056;-60
2022/04/12 03:35:05;;;;;;;5.85;3.58;;;11.90;75.20;;;;;;5061804;28;20055;-61
2022/04/12 03:37:30;;;;;;;5.53;3.65;;;11.90;75.10;;;;;;5058564;28;20116;-60
2022/04/12 03:39:56;;;;;;;4.68;3.38;;;11.90;75.20;;;;;;5058475;28;20105;-60
2022/04/12 03:42:21;;;;;;;8.43;3.53;;;11.90;75.20;;;;;;5060905;28;20037;-61
2022/04/12 03:44:47;;;;;;;5.90;3.58;;;11.90;75.80;;;;;;5059371;28;20090;-61
2022/04/12 03:47:13;;;;;;;4.93;3.58;;;11.90;75.40;;;;;;5058785;28;20479;-60
2022/04/12 03:49:38;;;;;;;4.45;3.30;;;11.80;75.50;;;;;;5059083;28;20051;-61
2022/04/12 03:52:04;;;;;;;5.15;3.40;;;11.90;75.70;;;;;;5058457;28;20090;-60
2022/04/12 03:54:30;;;;;;;5.10;3.13;;;11.80;75.80;;;;;;5061099;28;20449;-60
2022/04/12 03:56:55;;;;;;;5.13;3.55;;;11.80;75.90;;;;;;5061008;28;20358;-60
2022/04/12 03:59:21;;;;;;;3.42;2.67;;;11.80;76.00;;;;;;5057470;28;20056;-60
2022/04/12 04:01:46;;;;;;;5.32;3.17;;;11.80;76.10;;;;;;5058200;28;20385;-60
2022/04/12 04:04:12;;;;;;;4.72;2.90;;;11.70;76.10;;;;;;5060031;28;20036;-60
2022/04/12 04:06:38;;;;;;;4.18;3.03;;;11.70;76.20;;;;;;5044948;28;20391;-60
2022/04/12 04:09:04;;;;;;;4.55;3.13;;;11.70;76.20;;;;;;5062127;28;20112;-60
2022/04/12 04:11:29;;;;;;;5.15;3.28;;;11.70;76.40;;;;;;5062482;28;20047;-60
2022/04/12 04:13:55;;;;;;;8.40;3.38;;;11.70;76.40;;;;;;5060491;28;20124;-60
2022/04/12 04:16:21;;;;;;;9.52;3.33;;;11.70;76.40;;;;;;5062570;28;20065;-61
2022/04/12 04:18:46;;;;;;;10.80;3.88;;;11.70;76.40;;;;;;5059638;28;20090;-60
2022/04/12 04:21:12;;;;;;;10.38;3.05;;;11.70;76.50;;;;;;5060795;28;20016;-61
2022/04/12 04:23:37;;;;;;;15.23;4.00;;;11.60;76.50;;;;;;5059579;28;20025;-60
2022/04/12 04:26:03;;;;;;;8.32;3.92;;;11.60;76.50;;;;;;5059956;28;20032;-60
2022/04/12 04:28:30;;;;;;;12.07;3.85;;;11.60;76.50;;;;;;5063235;28;20033;-60
2022/04/12 04:30:56;;;;;;;17.15;3.97;;;11.60;76.60;;;;;;5061635;28;20073;-60
2022/04/12 04:33:21;;;;;;;8.48;3.65;;;11.60;76.50;;;;;;5043834;28;20036;-60
2022/04/12 04:35:47;;;;;;;12.15;3.97;;;11.60;76.40;;;;;;5061398;28;20028;-60
2022/04/12 04:38:13;;;;;;;17.27;5.43;;;11.50;76.40;;;;;;5059940;28;20109;-60
2022/04/12 04:40:39;;;;;;;27.25;6.10;;;11.50;76.40;;;;;;5062104;28;20538;-59
2022/04/12 04:43:04;;;;;;;54.95;7.07;;;11.50;76.40;;;;;;5062848;28;20036;-61
2022/04/12 04:45:30;;;;;;;41.80;7.75;;;11.50;76.50;;;;;;5064533;28;20024;-60
2022/04/12 04:47:59;;;;;;;30.73;6.38;;;11.50;76.50;;;;;;5061535;28;20868;-60
2022/04/12 04:50:26;;;;;;;38.60;6.68;;;11.40;76.40;;;;;;5061329;28;20145;-61
2022/04/12 04:52:51;;;;;;;46.95;7.43;;;11.50;76.40;;;;;;5060643;28;20063;-60
2022/04/12 04:55:17;;;;;;;53.75;8.48;;;11.40;76.30;;;;;;5043425;28;20060;-60
2022/04/12 04:57:43;;;;;;;38.22;7.03;;;11.40;76.30;;;;;;5059387;28;20663;-60
2022/04/12 05:00:15;;;;;;;39.22;7.38;;;11.40;76.40;;;;;;5043261;28;20028;-60
2022/04/12 05:02:43;;;;;;;36.53;6.35;;;11.40;77.00;;;;;;5059887;28;20040;-60
2022/04/12 05:05:08;;;;;;;30.23;5.93;;;11.30;76.30;;;;;;5064615;28;20467;-60
2022/04/12 05:07:34;;;;;;;32.42;6.93;;;11.30;76.40;;;;;;5062467;28;20024;-60
2022/04/12 05:09:59;;;;;;;49.35;6.82;;;11.30;76.40;;;;;;5061427;28;20511;-60
2022/04/12 05:12:25;;;;;;;44.85;6.72;;;11.30;76.40;;;;;;5060683;28;20053;-60
2022/04/12 05:14:50;;;;;;;39.38;7.53;;;11.30;76.40;;;;;;5061867;28;20036;-60
2022/04/12 05:17:28;;;;;;;37.72;6.55;;;11.20;76.30;;;;;;5061097;28;20629;-60
2022/04/12 05:19:54;;;;;;;43.78;6.65;;;11.20;76.30;;;;;;5061394;28;20028;-60
2022/04/12 05:22:19;;;;;;;35.72;6.45;;;11.20;76.40;;;;;;5060949;28;20643;-60
2022/04/12 05:24:45;;;;;;;34.00;6.43;;;11.20;76.50;;;;;;5059628;28;20043;-60
2022/04/12 05:27:11;;;;;;;33.95;6.03;;;11.20;76.60;;;;;;5058940;28;20514;-60
2022/04/12 05:29:37;;;;;;;31.98;6.95;;;11.20;76.70;;;;;;5060728;28;20028;-60
2022/04/12 05:32:03;;;;;;;27.75;6.50;;;11.20;76.80;;;;;;5060235;28;20067;-60
2022/04/12 05:34:29;;;;;;;26.85;6.45;;;11.20;76.80;;;;;;5060112;28;20033;-59
2022/04/12 05:36:54;;;;;;;36.33;7.00;;;11.10;76.80;;;;;;5059401;28;20048;-60
2022/04/12 05:39:20;;;;;;;31.77;6.28;;;11.10;76.80;;;;;;5055086;28;20571;-60
2022/04/12 05:41:45;;;;;;;40.33;6.93;;;11.10;76.80;;;;;;5057171;28;20037;-59
2022/04/12 05:44:10;;;;;;;27.25;6.03;;;11.10;76.90;;;;;;5057105;28;20080;-60
2022/04/12 05:46:36;;;;;;;21.80;5.60;;;11.10;77.00;;;;;;5056515;28;20139;-60
2022/04/12 05:49:02;;;;;;;32.92;6.25;;;11.10;77.00;;;;;;5062482;28;20078;-59
2022/04/12 05:51:27;;;;;;;22.05;6.13;;;11.10;77.10;;;;;;5061395;28;20405;-60
2022/04/12 05:53:53;;;;;;;25.83;6.22;;;11.10;77.10;;;;;;5061516;28;20047;-61
2022/04/12 05:56:18;;;;;;;18.88;5.80;;;11.10;77.20;;;;;;5058669;28;20029;-60
2022/04/12 05:58:44;;;;;;;19.48;5.25;;;11.10;77.10;;;;;;5060793;28;20445;-60
2022/04/12 06:01:09;;;;;;;18.02;6.10;;;11.10;77.10;;;;;;5057398;28;20036;-60
2022/04/12 06:03:35;;;;;;;20.00;5.60;;;11.10;77.10;;;;;;5058059;28;20471;-60
2022/04/12 06:06:00;;;;;;;15.32;5.80;;;11.10;77.00;;;;;;5057970;28;20139;-60
2022/04/12 06:08:26;;;;;;;17.10;5.82;;;11.10;76.90;;;;;;5059429;28;20068;-60
2022/04/12 06:10:52;;;;;;;21.73;5.50;;;11.10;76.80;;;;;;5058666;28;20039;-59
2022/04/12 06:13:18;;;;;;;19.52;5.75;;;11.10;76.80;;;;;;5059386;28;20086;-60
2022/04/12 06:15:44;;;;;;;13.85;5.63;;;11.10;76.80;;;;;;5060952;28;20052;-60
2022/04/12 06:18:10;;;;;;;13.90;5.60;;;11.10;76.80;;;;;;5060047;28;20454;-61
2022/04/12 06:20:36;;;;;;;13.98;6.57;;;11.10;76.70;;;;;;5058438;28;20033;-61
2022/04/12 06:23:01;;;;;;;20.45;5.95;;;11.10;76.50;;;;;;5035281;28;20578;-60
2022/04/12 06:25:27;;;;;;;14.43;5.88;;;11.10;76.50;;;;;;5053930;28;20048;-61
2022/04/12 06:27:53;;;;;;;17.10;5.45;;;11.10;76.40;;;;;;5056303;28;20059;-60
2022/04/12 06:30:23;;;;;;;12.82;5.63;;;11.10;76.40;;;;;;5056451;28;20028;-60
2022/04/12 06:32:48;;;;;;;22.77;5.72;;;11.10;76.50;;;;;;5057388;28;20044;-60
2022/04/12 06:35:14;;;;;;;14.02;5.75;;;11.10;76.30;;;;;;5059565;28;20671;-60
2022/04/12 06:37:41;;;;;;;13.43;5.22;;;11.10;76.30;;;;;;5058369;28;20024;-60
2022/04/12 06:40:07;;;;;;;17.13;5.10;;;11.20;76.20;;;;;;5057567;28;20051;-60
2022/04/12 06:42:34;;;;;;;12.18;4.95;;;11.20;76.20;;;;;;5057452;28;20028;-60
2022/04/12 06:44:59;;;;;;;20.20;5.95;;;11.20;76.20;;;;;;5056477;28;20040;-60
2022/04/12 06:47:25;;;;;;;25.98;6.05;;;11.20;76.10;;;;;;5057033;28;20040;-60
2022/04/12 06:49:51;;;;;;;35.67;6.50;;;11.20;76.20;;;;;;5058457;28;20032;-60
2022/04/12 06:52:20;;;;;;;12.68;5.53;;;11.20;76.30;;;;;;5059487;28;20054;-60
2022/04/12 06:54:45;;;;;;;25.30;5.88;;;11.20;76.20;;;;;;5058068;28;20408;-59
2022/04/12 06:57:11;;;;;;;14.23;5.05;;;11.20;76.20;;;;;;5058146;28;20024;-60
2022/04/12 06:59:36;;;;;;;20.73;5.63;;;11.20;76.20;;;;;;5060914;28;20032;-60
2022/04/12 07:02:02;;;;;;;32.05;6.55;;;11.20;76.10;;;;;;5061528;28;20429;-60
2022/04/12 07:04:28;;;;;;;22.83;6.30;;;11.30;76.00;;;;;;5059410;28;20484;-61
2022/04/12 07:06:54;;;;;;;28.63;6.18;;;11.30;76.10;;;;;;5057019;28;20068;-60
2022/04/12 07:09:20;;;;;;;19.98;6.15;;;11.30;76.10;;;;;;5058763;28;20055;-60
2022/04/12 07:11:49;;;;;;;28.75;6.32;;;11.30;76.30;;;;;;5058690;28;20032;-60
2022/04/12 07:14:15;;;;;;;45.25;7.88;;;11.30;76.60;;;;;;5057462;28;20047;-60
2022/04/12 07:16:41;;;;;;;28.67;6.82;;;11.30;76.60;;;;;;5058384;28;20025;-60
2022/04/12 07:19:06;;;;;;;34.58;7.30;;;11.40;76.50;;;;;;5057480;28;20155;-60
2022/04/12 07:21:32;;;;;;;31.52;7.18;;;11.40;76.60;;;;;;5057754;28;20025;-60
2022/04/12 07:24:00;;;;;;;46.88;7.35;;;11.40;76.60;;;;;;5058284;28;20028;-61
2022/04/12 07:26:26;;;;;;;26.67;7.38;;;11.40;76.60;;;;;;5054818;28;20037;-60
2022/04/12 07:28:52;;;;;;;22.15;5.68;;;11.50;76.80;;;;;;5056517;28;20467;-60
2022/04/12 07:31:17;;;;;;;27.23;5.75;;;11.40;75.80;;;;;;5057904;28;20518;-60
2022/04/12 07:33:43;;;;;;;37.38;6.07;;;11.40;75.50;;;;;;5054941;28;20049;-61
2022/04/12 07:36:08;;;;;;;36.30;6.38;;;11.50;75.50;;;;;;5055664;28;20109;-61
2022/04/12 07:38:34;;;;;;;41.25;6.60;;;11.50;75.60;;;;;;5052966;28;20044;-60
2022/04/12 07:40:59;;;;;;;34.15;6.53;;;11.50;75.70;;;;;;5061786;28;20027;-60
2022/04/12 07:43:25;;;;;;;44.08;6.97;;;11.50;75.60;;;;;;5061029;28;20057;-60
2022/04/12 07:45:50;;;;;;;27.60;6.63;;;11.50;75.50;;;;;;5058919;28;20029;-60
2022/04/12 07:48:16;;;;;;;49.70;8.10;;;11.50;75.50;;;;;;5060292;28;20339;-60
2022/04/12 07:50:41;;;;;;;57.08;8.20;;;11.60;75.70;;;;;;5061561;28;20037;-60
2022/04/12 07:53:07;;;;;;;55.95;8.98;;;11.60;75.60;;;;;;5061999;28;20043;-61
2022/04/12 07:55:32;;;;;;;51.08;8.70;;;11.60;75.70;;;;;;5059844;28;20039;-60
2022/04/12 07:57:58;;;;;;;53.15;8.02;;;11.60;75.60;;;;;;5063890;28;20178;-61
2022/04/12 08:00:23;;;;;;;60.47;9.35;;;11.60;75.60;;;;;;5057929;28;20047;-60
2022/04/12 08:02:49;;;;;;;67.47;10.30;;;11.70;75.60;;;;;;5057564;28;20031;-60
2022/04/12 08:05:15;;;;;;;59.17;8.80;;;11.70;75.50;;;;;;5043742;28;20029;-60
2022/04/12 08:07:47;;;;;;;56.30;9.00;;;11.70;75.60;;;;;;5057409;28;20433;-60
2022/04/12 08:10:14;;;;;;;48.10;7.53;;;11.70;75.40;;;;;;5060704;28;20059;-61
2022/04/12 08:12:39;;;;;;;33.40;6.13;;;11.70;75.50;;;;;;5062170;28;20082;-60
2022/04/12 08:15:05;;;;;;;31.40;6.75;;;11.80;75.60;;;;;;5059607;28;20033;-60
2022/04/12 08:17:31;;;;;;;32.97;6.88;;;11.80;75.60;;;;;;5062552;28;20052;-61
2022/04/12 08:19:56;;;;;;;37.03;7.60;;;11.80;75.70;;;;;;5055719;28;20640;-61
2022/04/12 08:22:22;;;;;;;28.85;6.13;;;11.80;75.60;;;;;;5062761;28;20189;-60
2022/04/12 08:24:47;;;;;;;39.30;7.40;;;11.80;75.50;;;;;;5057449;28;20107;-61
2022/04/12 08:27:13;;;;;;;22.92;5.82;;;11.90;75.50;;;;;;5056048;28;20117;-60
2022/04/12 08:29:38;;;;;;;24.40;6.30;;;11.90;75.60;;;;;;5053766;28;20029;-60
2022/04/12 08:32:04;;;;;;;26.40;5.40;;;11.90;75.40;;;;;;5059164;28;20051;-60
2022/04/12 08:34:30;;;;;;;47.03;7.53;;;11.90;75.30;;;;;;5052285;28;20574;-60
2022/04/12 08:36:55;;;;;;;31.65;6.97;;;11.90;75.40;;;;;;5059770;28;20166;-60
2022/04/12 08:39:21;;;;;;;33.17;7.05;;;12.00;75.50;;;;;;5058684;28;20712;-60
2022/04/12 08:41:46;;;;;;;20.33;6.00;;;12.00;75.40;;;;;;5052468;28;20663;-61
2022/04/12 08:44:12;;;;;;;22.83;6.00;;;12.00;75.30;;;;;;5061202;28;20121;-61
2022/04/12 08:46:38;;;;;;;28.77;6.35;;;12.10;75.20;;;;;;5052195;28;20655;-61
2022/04/12 08:49:04;;;;;;;28.77;6.72;;;12.10;75.10;;;;;;5039774;28;20037;-61
2022/04/12 08:51:30;;;;;;;30.90;6.65;;;12.10;75.00;;;;;;5056787;28;20948;-61
2022/04/12 08:53:57;;;;;;;26.38;6.35;;;12.20;75.00;;;;;;5039896;28;20062;-60
2022/04/12 08:56:22;;;;;;;18.05;6.10;;;12.20;74.80;;;;;;5057594;28;20098;-60
2022/04/12 08:58:48;;;;;;;35.50;6.93;;;12.30;74.80;;;;;;5059919;28;20120;-60
2022/04/12 09:01:15;;;;;;;22.27;5.55;;;12.30;74.60;;;;;;5058607;28;20567;-60
2022/04/12 09:03:40;;;;;;;20.63;5.57;;;12.40;74.40;;;;;;5058101;28;20021;-60
2022/04/12 09:06:06;;;;;;;26.90;5.53;;;12.40;74.20;;;;;;5060107;28;20040;-60
2022/04/12 09:08:32;;;;;;;13.55;4.40;;;12.40;74.00;;;;;;5054108;28;20496;-61
2022/04/12 09:11:00;;;;;;;27.65;5.50;;;12.50;73.90;;;;;;5055374;28;20051;-61
2022/04/12 09:13:26;;;;;;;32.55;5.22;;;12.50;73.70;;;;;;5055089;28;20243;-61
2022/04/12 09:15:51;;;;;;;24.45;5.85;;;12.50;73.60;;;;;;5040162;28;20162;-61
2022/04/12 09:18:39;;;;;;;32.60;6.55;;;12.60;73.70;;;;;;5052675;28;20115;-60
2022/04/12 09:21:18;;;;;;;24.92;5.15;;;12.60;73.70;;;;;;5056372;28;20054;-60
2022/04/12 09:23:51;;;;;;;27.30;7.03;;;12.70;73.40;;;;;;5054558;28;20035;-60
2022/04/12 09:26:22;;;;;;;32.95;6.68;;;12.70;73.60;;;;;;5053550;28;20578;-60
2022/04/12 09:28:47;;;;;;;23.55;6.40;;;12.70;73.60;;;;;;5025347;28;20111;-60
2022/04/12 09:31:17;;;;;;;35.78;6.47;;;12.80;73.50;;;;;;5055172;28;20453;-60
2022/04/12 09:33:44;;;;;;;25.50;5.43;;;12.80;73.40;;;;;;5044261;28;20572;-60
2022/04/12 09:36:09;;;;;;;25.15;5.72;;;12.80;73.30;;;;;;5057137;28;20025;-60
2022/04/12 09:38:36;;;;;;;29.77;6.07;;;12.90;73.10;;;;;;5057909;28;20031;-61
2022/04/12 09:41:11;;;;;;;29.73;5.82;;;12.90;73.10;;;;;;5058474;28;20113;-61
2022/04/12 09:43:49;;;;;;;24.23;5.27;;;13.00;73.10;;;;;;5061929;28;20041;-60
2022/04/12 09:46:15;;;;;;;18.70;4.80;;;13.00;72.80;;;;;;5058250;28;20462;-61
2022/04/12 09:48:45;;;;;;;18.10;5.78;;;13.10;72.70;;;;;;5056442;28;20480;-61
2022/04/12 09:51:11;;;;;;;28.70;5.45;;;13.10;73.00;;;;;;5055401;28;20048;-60
2022/04/12 09:53:38;;;;;;;19.00;5.18;;;13.20;72.80;;;;;;5052817;28;20047;-61
2022/04/12 09:56:13;;;;;;;24.75;5.22;;;13.20;72.50;;;;;;5056491;28;20484;-60
2022/04/12 09:58:38;;;;;;;22.33;5.43;;;13.30;72.40;;;;;;5051468;28;20051;-60
2022/04/12 10:01:04;;;;;;;27.52;5.45;;;13.30;72.30;;;;;;5057595;28;20539;-60
2022/04/12 10:03:30;;;;;;;33.22;6.05;;;13.30;72.00;;;;;;5055734;28;20380;-60
2022/04/12 10:05:56;;;;;;;37.75;6.22;;;13.40;72.00;;;;;;5040883;28;20055;-61
2022/04/12 10:08:22;;;;;;;32.83;7.10;;;13.40;72.10;;;;;;5057266;28;20070;-60
2022/04/12 10:10:47;;;;;;;41.05;6.85;;;13.40;72.10;;;;;;5039386;28;20665;-60
2022/04/12 10:13:14;;;;;;;43.90;7.38;;;13.50;72.00;;;;;;5057668;28;20094;-61
2022/04/12 10:15:40;;;;;;;46.33;7.15;;;13.50;71.90;;;;;;5056112;28;20143;-60
2022/04/12 10:18:05;;;;;;;128.80;14.85;;;13.60;72.10;;;;;;5053136;28;20155;-61
2022/04/12 10:20:31;;;;;;;46.70;7.90;;;13.60;71.80;;;;;;5056131;28;20036;-60
2022/04/12 10:22:57;;;;;;;33.45;7.05;;;13.70;71.90;;;;;;5056330;28;20468;-60
2022/04/12 10:25:23;;;;;;;44.33;7.60;;;13.70;71.70;;;;;;5054726;28;20028;-60
2022/04/12 10:27:50;;;;;;;54.63;8.05;;;13.80;71.40;;;;;;5057553;28;20040;-60
2022/04/12 10:30:15;;;;;;;40.80;7.72;;;13.80;71.10;;;;;;5058281;28;20028;-61
2022/04/12 10:33:03;;;;;;;65.43;8.60;;;13.90;70.90;;;;;;5057647;28;20454;-61
2022/04/12 10:35:49;;;;;;;48.42;7.40;;;13.90;70.70;;;;;;5057163;28;20074;-61
2022/04/12 10:38:16;;;;;;;55.25;9.45;;;14.00;70.80;;;;;;5054079;28;20047;-60
2022/04/12 10:40:49;;;;;;;70.65;10.32;;;14.00;70.60;;;;;;5054326;28;20063;-61
2022/04/12 10:43:20;;;;;;;75.88;10.15;;;14.00;70.90;;;;;;5054117;28;20031;-61
2022/04/12 10:45:47;;;;;;;85.40;10.70;;;14.10;70.80;;;;;;5057293;28;20024;-60
2022/04/12 10:48:20;;;;;;;82.22;10.90;;;14.20;71.20;;;;;;5055735;28;20115;-60
2022/04/12 10:50:46;;;;;;;75.22;11.18;;;14.20;71.00;;;;;;5058511;28;20185;-60
2022/04/12 10:53:12;;;;;;;79.28;10.55;;;14.30;71.10;;;;;;5056116;28;20033;-60
2022/04/12 10:55:40;;;;;;;63.70;10.20;;;14.30;70.70;;;;;;5060507;28;20081;-60
2022/04/12 10:58:14;;;;;;;62.08;9.75;;;14.40;70.40;;;;;;5058206;28;20032;-61
2022/04/12 11:00:42;;;;;;;80.95;11.57;;;14.50;70.50;;;;;;5055105;28;20496;-61
2022/04/12 11:03:08;;;;;;;103.25;12.95;;;14.50;70.50;;;;;;5053338;28;20044;-60
2022/04/12 11:05:37;;;;;;;73.53;11.80;;;14.50;71.00;;;;;;5055667;28;20040;-61
2022/04/12 11:08:06;;;;;;;69.05;10.40;;;14.70;70.90;;;;;;5057938;28;20028;-61
2022/04/12 11:10:32;;;;;;;63.08;10.13;;;14.70;70.20;;;;;;5055135;28;20029;-61
2022/04/12 11:13:05;;;;;;;64.57;9.55;;;14.80;69.80;;;;;;5057519;28;20033;-60
2022/04/12 11:15:31;;;;;;;50.40;8.50;;;14.80;69.50;;;;;;5061301;28;20028;-60
2022/04/12 11:18:06;;;;;;;47.03;8.68;;;14.90;69.20;;;;;;5062933;28;20063;-60
2022/04/12 11:20:31;;;;;;;42.95;9.50;;;14.90;69.20;;;;;;5063181;28;20037;-60
2022/04/12 11:22:58;;;;;;;37.45;8.00;;;15.00;69.30;;;;;;5060761;28;20046;-60
2022/04/12 11:25:26;;;;;;;33.10;7.50;;;15.10;68.70;;;;;;5059474;28;20267;-61
2022/04/12 11:27:58;;;;;;;59.67;9.23;;;15.20;68.40;;;;;;5040844;28;21142;-60
2022/04/12 11:30:27;;;;;;;48.25;7.47;;;15.20;68.40;;;;;;5060311;28;20379;-60
2022/04/12 11:32:54;;;;;;;44.28;8.38;;;15.30;68.50;;;;;;5060679;28;20079;-61
2022/04/12 11:35:20;;;;;;;53.38;8.45;;;15.40;68.10;;;;;;5061679;28;20028;-60
2022/04/12 11:37:46;;;;;;;30.13;7.43;;;15.50;67.90;;;;;;5061577;28;20464;-61
2022/04/12 11:40:11;;;;;;;47.60;8.45;;;15.50;67.90;;;;;;5063786;28;20057;-61
2022/04/12 11:42:37;;;;;;;61.58;8.88;;;15.60;67.80;;;;;;5042438;28;20531;-61
2022/04/12 11:45:03;;;;;;;50.63;8.23;;;15.70;67.40;;;;;;5060878;28;20036;-61
2022/04/12 11:47:32;;;;;;;50.15;7.75;;;15.80;67.30;;;;;;5059267;28;20040;-60
2022/04/12 11:49:57;;;;;;;60.35;8.10;;;15.80;67.20;;;;;;5051834;28;20496;-61
2022/04/12 11:52:24;;;;;;;57.15;7.93;;;15.90;67.00;;;;;;5058318;28;20047;-60
2022/04/12 11:54:50;;;;;;;58.15;8.02;;;16.00;67.50;;;;;;5044043;28;20487;-61
2022/04/12 11:57:20;;;;;;;43.72;7.97;;;16.10;66.80;;;;;;5057813;28;20028;-61
2022/04/12 11:59:50;;;;;;;40.03;7.68;;;16.10;66.80;;;;;;5051685;28;20112;-60
2022/04/12 12:02:17;;;;;;;40.97;7.25;;;16.20;67.00;;;;;;5062602;28;20049;-61
2022/04/12 12:04:54;;;;;;;53.97;7.63;;;16.30;66.90;;;;;;5059287;28;20040;-60
2022/04/12 12:07:19;;;;;;;38.42;7.60;;;16.40;66.90;;;;;;5060224;28;20115;-60
2022/04/12 12:09:54;;;;;;;57.90;7.95;;;16.50;66.80;;;;;;5051485;28;20138;-61
2022/04/12 12:12:20;;;;;;;37.95;8.13;;;16.60;66.30;;;;;;5058706;28;20639;-61
2022/04/12 12:14:45;;;;;;;39.55;6.93;;;16.70;65.80;;;;;;5057078;28;20051;-61
2022/04/12 12:17:18;;;;;;;36.15;6.95;;;16.80;65.80;;;;;;5055571;28;20095;-60
2022/04/12 12:19:44;;;;;;;41.55;7.90;;;16.90;66.20;;;;;;5057409;28;20040;-61
2022/04/12 12:22:10;;;;;;;34.05;6.78;;;17.00;65.80;;;;;;5057220;28;20028;-61
2022/04/12 12:24:49;;;;;;;44.83;6.10;;;17.10;65.30;;;;;;5057842;28;20024;-61
2022/04/12 12:27:14;;;;;;;31.45;5.97;;;17.20;65.10;;;;;;5054412;28;20032;-61
2022/04/12 12:29:42;;;;;;;36.97;6.57;;;17.30;65.20;;;;;;5055894;28;20048;-61
2022/04/12 12:32:08;;;;;;;48.03;6.97;;;17.40;64.80;;;;;;5061301;28;20068;-60
2022/04/12 12:34:34;;;;;;;39.67;6.32;;;17.40;64.30;;;;;;5057202;28;20124;-61
2022/04/12 12:37:07;;;;;;;35.22;6.32;;;17.50;64.00;;;;;;5061714;28;20484;-60